Time;durP1;ratioP1;P1;durP2;ratioP2;P2;SDS_P1;SDS_P2;PMS_P1;PMS_P2;Temp;Humidity;BMP_temperature;BMP_pressure;BME280_temperature;BME280_humidity;BME280_pressure;Samples;Min_cycle;Max_cycle;Signal;HPM_P1;HPM_P2
2021/08/26 00:07:29;;;;;;;31.45;4.75;;;;;;;13.64;100.00;101001.03;4959156;28;20038;-80
2021/08/26 00:09:54;;;;;;;35.10;7.00;;;;;;;13.65;100.00;101000.03;4965836;28;20045;-80
2021/08/26 00:12:21;;;;;;;28.95;4.57;;;;;;;13.61;100.00;101001.34;4989851;28;20041;-80
2021/08/26 00:14:47;;;;;;;29.67;5.38;;;;;;;13.55;100.00;101010.72;4955985;28;20042;-80
2021/08/26 00:17:14;;;;;;;40.22;5.40;;;;;;;13.56;100.00;101012.38;4962154;28;20519;-79
2021/08/26 00:19:41;;;;;;;28.25;4.60;;;;;;;13.56;100.00;101012.38;4942621;28;20550;-78
2021/08/26 00:22:07;;;;;;;34.20;4.90;;;;;;;13.60;100.00;101005.78;4940963;28;20104;-79
2021/08/26 00:24:34;;;;;;;27.70;4.95;;;;;;;13.58;100.00;101007.75;4938544;28;20118;-80
2021/08/26 00:26:59;;;;;;;40.83;5.25;;;;;;;13.55;100.00;101015.16;4948133;28;20528;-81
2021/08/26 00:29:25;;;;;;;37.38;5.97;;;;;;;13.59;100.00;101000.69;4937198;28;20121;-79
2021/08/26 00:31:59;;;;;;;33.70;5.25;;;;;;;13.52;100.00;100995.19;4990220;28;20679;-79
2021/08/26 00:34:25;;;;;;;43.88;5.53;;;;;;;13.51;100.00;100998.84;4991382;28;20046;-81
2021/08/26 00:36:50;;;;;;;31.45;4.78;;;;;;;13.47;100.00;100991.41;4973792;28;20117;-80
2021/08/26 00:39:16;;;;;;;38.17;4.97;;;;;;;13.46;100.00;100987.13;4972288;28;20424;-79
2021/08/26 00:41:43;;;;;;;31.70;4.80;;;;;;;13.47;100.00;100991.41;4958766;28;20049;-78
2021/08/26 00:44:08;;;;;;;37.20;5.03;;;;;;;13.47;100.00;100986.97;4942062;28;20088;-79
2021/08/26 00:46:35;;;;;;;41.28;5.32;;;;;;;13.44;100.00;100979.38;4957740;28;20030;-78
2021/08/26 00:49:00;;;;;;;33.10;5.20;;;;;;;13.52;100.00;100989.94;4957510;28;20030;-79
2021/08/26 00:51:26;;;;;;;33.05;5.80;;;;;;;13.44;100.00;100974.09;4958144;28;20416;-79
2021/08/26 00:53:53;;;;;;;31.63;5.15;;;;;;;13.42;100.00;100962.91;4968623;28;20041;-80
2021/08/26 00:56:18;;;;;;;36.78;5.90;;;;;;;13.44;100.00;100963.56;4991094;28;20034;-81
2021/08/26 00:58:46;;;;;;;46.00;6.30;;;;;;;13.48;100.00;100980.69;4973923;28;20177;-79
2021/08/26 01:01:12;;;;;;;39.85;5.88;;;;;;;13.38;100.00;100951.84;4941703;28;20081;-81
2021/08/26 01:03:47;;;;;;;31.85;5.95;;;;;;;13.49;100.00;100963.91;4970317;28;20146;-80
2021/08/26 01:06:22;;;;;;;44.58;6.32;;;;;;;13.47;100.00;100976.44;4970841;28;20027;-80
2021/08/26 01:08:55;;;;;;;36.42;5.82;;;;;;;13.45;100.00;100965.22;4973923;28;20504;-79
2021/08/26 01:11:22;;;;;;;40.72;5.85;;;;;;;13.47;100.00;100962.41;4994637;28;20327;-80
2021/08/26 01:13:51;;;;;;;36.85;5.47;;;;;;;13.52;100.00;100960.13;4960262;28;20736;-79
2021/08/26 01:16:17;;;;;;;34.10;5.65;;;;;;;13.47;100.00;100981.72;4981309;28;20022;-80
2021/08/26 01:18:47;;;;;;;37.08;5.57;;;;;;;13.42;100.00;100971.63;4956899;28;20033;-81
2021/08/26 01:21:14;;;;;;;33.15;5.53;;;;;;;13.41;100.00;100969.16;4967255;28;20041;-80
2021/08/26 01:23:43;;;;;;;31.38;5.63;;;;;;;13.47;100.00;100971.16;4959239;28;20038;-80
2021/08/26 01:26:15;;;;;;;37.63;5.25;;;;;;;13.44;100.00;100966.19;4958056;28;20108;-80
2021/08/26 01:28:42;;;;;;;36.42;5.68;;;;;;;13.48;100.00;100961.44;4973203;28;20042;-79
2021/08/26 01:31:08;;;;;;;30.65;5.78;;;;;;;13.54;100.00;100966.06;4959774;28;20038;-80
2021/08/26 01:33:34;;;;;;;38.65;6.68;;;;;;;13.41;100.00;100969.16;4956701;28;20069;-81
2021/08/26 01:36:02;;;;;;;38.08;5.65;;;;;;;13.47;100.00;100962.41;4942726;28;20388;-79
2021/08/26 01:38:29;;;;;;;42.10;6.30;;;;;;;13.39;100.00;100966.69;4976233;28;20043;-79
2021/08/26 01:40:55;;;;;;;29.88;5.53;;;;;;;13.35;100.00;100967.97;4991192;28;20033;-81
2021/08/26 01:43:21;;;;;;;37.25;5.35;;;;;;;13.24;100.00;100955.91;4990507;28;20030;-79
2021/08/26 01:45:48;;;;;;;31.02;5.95;;;;;;;13.15;100.00;100956.03;4961439;28;20034;-79
2021/08/26 01:48:14;;;;;;;39.35;6.05;;;;;;;13.07;100.00;100956.78;4943675;28;20037;-80
2021/08/26 01:50:40;;;;;;;42.17;5.85;;;;;;;12.97;100.00;100958.72;4960113;28;20504;-79
2021/08/26 01:53:05;;;;;;;28.52;5.50;;;;;;;12.93;100.00;100962.66;4937534;28;20038;-79
2021/08/26 01:55:31;;;;;;;36.50;6.60;;;;;;;12.85;100.00;100959.00;4961207;28;20113;-80
2021/08/26 01:58:00;;;;;;;38.50;6.10;;;;;;;12.95;100.00;100960.69;4966388;28;20445;-78
2021/08/26 02:00:25;;;;;;;29.25;6.25;;;;;;;12.86;100.00;100954.56;4972175;28;20036;-80
2021/08/26 02:02:51;;;;;;;38.72;6.53;;;;;;;12.94;100.00;100945.88;4992656;28;20125;-80
2021/08/26 02:05:16;;;;;;;37.55;6.20;;;;;;;12.99;100.00;100962.03;4958272;28;20042;-79
2021/08/26 02:07:47;;;;;;;32.58;5.82;;;;;;;12.96;100.00;100963.19;4942102;28;20026;-81
2021/08/26 02:10:13;;;;;;;48.35;6.53;;;;;;;12.90;100.00;100962.97;4974909;28;20050;-81
2021/08/26 02:12:38;;;;;;;49.75;6.63;;;;;;;12.92;100.00;100956.59;4976003;28;20423;-81
2021/08/26 02:15:05;;;;;;;41.50;5.80;;;;;;;12.93;100.00;100960.84;4959824;28;20034;-77
2021/08/26 02:17:30;;;;;;;32.63;6.97;;;;;;;12.85;100.00;100950.28;4992727;28;20030;-79
2021/08/26 02:19:56;;;;;;;44.88;6.68;;;;;;;12.87;100.00;100948.31;4992004;28;20041;-80
2021/08/26 02:22:22;;;;;;;38.97;6.70;;;;;;;12.89;100.00;100953.44;4993482;28;20033;-80
2021/08/26 02:24:47;;;;;;;40.47;6.40;;;;;;;12.76;100.00;100957.31;4955630;28;20031;-80
2021/08/26 02:27:13;;;;;;;39.67;6.20;;;;;;;12.76;100.00;100956.47;4958172;28;20041;-80
2021/08/26 02:29:39;;;;;;;35.45;6.25;;;;;;;12.87;100.00;100960.66;4975724;28;20149;-79
2021/08/26 02:32:04;;;;;;;37.90;6.35;;;;;;;12.85;100.00;100956.38;4959091;28;20038;-79
2021/08/26 02:34:30;;;;;;;30.88;6.05;;;;;;;12.80;100.00;100955.19;4993150;28;20076;-79
2021/08/26 02:36:57;;;;;;;38.05;6.45;;;;;;;12.80;100.00;100949.91;4975743;28;20030;-80
2021/08/26 02:39:22;;;;;;;41.53;7.00;;;;;;;12.81;100.00;100946.31;4974439;28;20046;-80
2021/08/26 02:41:48;;;;;;;31.50;6.43;;;;;;;12.73;100.00;100949.69;4975040;28;20061;-80
2021/08/26 02:44:13;;;;;;;30.48;6.05;;;;;;;12.69;100.00;100952.81;4975520;28;20562;-79
2021/08/26 02:46:39;;;;;;;43.55;7.15;;;;;;;12.67;100.00;100939.81;4991839;28;20034;-80
2021/08/26 02:49:04;;;;;;;35.15;6.38;;;;;;;12.60;100.00;100959.81;4964281;28;20476;-78
2021/08/26 02:51:30;;;;;;;48.00;6.55;;;;;;;12.53;100.00;100945.66;4959141;28;20514;-80
2021/08/26 02:53:55;;;;;;;34.60;6.22;;;;;;;12.46;100.00;100955.94;4975720;28;20042;-81
2021/08/26 02:56:21;;;;;;;39.85;6.53;;;;;;;12.46;100.00;100962.03;4973617;28;20035;-81
2021/08/26 02:58:47;;;;;;;39.90;6.72;;;;;;;12.46;100.00;100964.66;4975458;28;20065;-80
2021/08/26 03:01:12;;;;;;;34.80;6.50;;;;;;;12.46;100.00;100961.22;4958582;28;20507;-80
2021/08/26 03:03:38;;;;;;;53.25;8.50;;;;;;;12.53;100.00;100951.72;4975333;28;20037;-80
2021/08/26 03:06:03;;;;;;;42.22;7.45;;;;;;;12.59;100.00;100952.91;4959589;28;20034;-79
2021/08/26 03:08:31;;;;;;;43.53;8.85;;;;;;;12.58;100.00;100943.38;4974693;28;20084;-78
2021/08/26 03:10:56;;;;;;;37.42;7.30;;;;;;;12.60;100.00;100958.03;4991166;28;20034;-80
2021/08/26 03:13:22;;;;;;;36.60;7.13;;;;;;;12.60;100.00;100957.19;4958832;28;20511;-79
2021/08/26 03:15:47;;;;;;;50.53;8.02;;;;;;;12.71;100.00;100956.13;4990781;28;20035;-80
2021/08/26 03:18:13;;;;;;;38.00;7.47;;;;;;;12.75;100.00;100953.03;4945008;28;20034;-78
2021/08/26 03:20:40;;;;;;;41.67;7.70;;;;;;;12.77;100.00;100950.22;4959038;28;20046;-81
2021/08/26 03:23:06;;;;;;;44.30;7.63;;;;;;;12.85;100.00;100952.91;4958861;28;20089;-80
2021/08/26 03:25:31;;;;;;;50.45;8.32;;;;;;;12.90;100.00;100948.00;4992793;28;20504;-82
2021/08/26 03:27:57;;;;;;;47.22;8.85;;;;;;;12.90;100.00;100940.09;4965371;28;20030;-79
2021/08/26 03:30:23;;;;;;;41.25;8.32;;;;;;;12.85;100.00;100943.22;4937560;28;20041;-78
2021/08/26 03:32:48;;;;;;;51.95;9.93;;;;;;;12.86;100.00;100949.28;4974920;28;20042;-80
2021/08/26 03:35:14;;;;;;;48.13;9.52;;;;;;;12.89;100.00;100946.34;4955630;28;20043;-80
2021/08/26 03:37:39;;;;;;;45.38;8.25;;;;;;;12.82;100.00;100934.78;4950231;28;20117;-81
2021/08/26 03:40:06;;;;;;;43.22;8.77;;;;;;;12.81;100.00;100939.25;4985289;28;20034;-80
2021/08/26 03:42:31;;;;;;;34.63;7.35;;;;;;;12.81;100.00;100955.03;4957599;28;20489;-80
2021/08/26 03:44:56;;;;;;;37.75;7.65;;;;;;;12.82;100.00;100954.03;4975274;28;20040;-81
2021/08/26 03:47:22;;;;;;;38.55;9.10;;;;;;;12.82;100.00;100945.31;4950385;28;20124;-80
2021/08/26 03:49:47;;;;;;;46.38;8.43;;;;;;;12.81;100.00;100948.94;4958096;28;20481;-80
2021/08/26 03:52:13;;;;;;;34.35;6.72;;;;;;;12.80;100.00;100949.91;4974530;28;20030;-81
2021/08/26 03:54:39;;;;;;;42.35;7.78;;;;;;;12.80;100.00;100963.09;4973023;28;20504;-79
2021/08/26 03:57:06;;;;;;;30.35;7.38;;;;;;;12.77;100.00;100956.34;4974155;28;20058;-80
2021/08/26 03:59:32;;;;;;;32.72;6.72;;;;;;;12.70;100.00;100963.19;4966257;28;20090;-81
2021/08/26 04:01:57;;;;;;;46.42;7.93;;;;;;;12.70;100.00;100963.19;4941633;28;20483;-81
2021/08/26 04:04:23;;;;;;;36.45;7.80;;;;;;;12.66;100.00;100951.31;4958020;28;20045;-82
2021/08/26 04:06:48;;;;;;;40.55;8.40;;;;;;;12.60;100.00;100947.50;4954425;28;20038;-80
2021/08/26 04:09:14;;;;;;;42.22;7.43;;;;;;;12.64;100.00;100951.47;4970424;28;20555;-80
2021/08/26 04:11:39;;;;;;;43.75;8.05;;;;;;;12.74;100.00;100946.09;4957736;28;20030;-77
2021/08/26 04:14:05;;;;;;;43.20;7.78;;;;;;;12.73;100.00;100954.97;4957610;28;20038;-79
2021/08/26 04:16:31;;;;;;;45.85;7.90;;;;;;;12.78;100.00;100947.44;4970562;28;20066;-82
2021/08/26 04:18:56;;;;;;;51.95;8.10;;;;;;;12.75;100.00;100939.88;4947543;28;20802;-81
2021/08/26 04:21:22;;;;;;;40.13;7.00;;;;;;;12.80;100.00;100948.09;4974464;28;20037;-81
2021/08/26 04:23:47;;;;;;;31.23;6.32;;;;;;;12.78;100.00;100951.88;4942245;28;20029;-81
2021/08/26 04:26:13;;;;;;;34.50;6.32;;;;;;;12.77;100.00;100951.06;4990586;28;20042;-80
2021/08/26 04:28:38;;;;;;;35.58;6.57;;;;;;;12.73;100.00;100941.81;4958927;28;20832;-80
2021/08/26 04:31:03;;;;;;;33.25;6.20;;;;;;;12.81;100.00;100939.25;4955068;28;20039;-79
2021/08/26 04:33:29;;;;;;;33.95;5.72;;;;;;;12.79;100.00;100949.09;4939727;28;20678;-79
2021/08/26 04:35:54;;;;;;;32.88;6.40;;;;;;;12.71;100.00;100933.25;4972498;28;20110;-81
2021/08/26 04:38:20;;;;;;;28.35;5.13;;;;;;;12.82;100.00;100954.03;4957877;28;20121;-79
2021/08/26 04:40:45;;;;;;;33.95;4.97;;;;;;;12.83;100.00;100947.81;4974866;28;20105;-79
2021/08/26 04:43:11;;;;;;;30.05;5.53;;;;;;;12.84;100.00;100938.91;4960319;28;20031;-78
2021/08/26 04:45:37;;;;;;;42.15;6.00;;;;;;;12.90;100.00;100942.72;4947259;28;20118;-78
2021/08/26 04:48:02;;;;;;;27.90;5.22;;;;;;;12.87;100.00;100945.69;4945847;28;20493;-78
2021/08/26 04:50:28;;;;;;;25.67;5.03;;;;;;;12.85;100.00;100935.31;4953329;28;20050;-80
2021/08/26 04:52:53;;;;;;;34.30;5.85;;;;;;;12.90;100.00;100929.56;4973129;28;20045;-80
2021/08/26 04:55:19;;;;;;;33.00;5.50;;;;;;;12.94;100.00;100937.97;4960713;28;20045;-79
2021/08/26 04:57:44;;;;;;;31.73;5.95;;;;;;;12.95;100.00;100932.56;4977120;28;20038;-79
2021/08/26 05:00:10;;;;;;;31.88;5.82;;;;;;;12.92;100.00;100934.69;4972716;28;20034;-79
2021/08/26 05:02:36;;;;;;;23.83;5.65;;;;;;;12.98;100.00;100934.88;4976947;28;20654;-79
2021/08/26 05:05:01;;;;;;;28.58;5.70;;;;;;;13.03;100.00;100942.31;4975849;28;20034;-79
2021/08/26 05:07:27;;;;;;;30.77;4.85;;;;;;;13.04;100.00;100934.25;4943574;28;20034;-81
2021/08/26 05:09:53;;;;;;;37.25;6.10;;;;;;;13.04;100.00;100934.25;4959401;28;20049;-81
2021/08/26 05:12:18;;;;;;;26.70;5.40;;;;;;;13.04;100.00;100934.25;4976254;28;20042;-80
2021/08/26 05:14:44;;;;;;;29.33;5.38;;;;;;;13.17;100.00;100951.44;4960315;28;20536;-80
2021/08/26 05:17:10;;;;;;;27.63;5.38;;;;;;;13.28;100.00;100937.13;4992198;28;20034;-80
2021/08/26 05:19:35;;;;;;;30.90;5.72;;;;;;;13.25;100.00;100943.53;4944131;28;20050;-80
2021/08/26 05:22:02;;;;;;;31.88;5.95;;;;;;;13.32;100.00;100941.16;4956571;28;20646;-80
2021/08/26 05:24:28;;;;;;;22.23;5.47;;;;;;;13.32;100.00;100938.50;4964533;28;20030;-79
2021/08/26 05:26:54;;;;;;;29.23;5.25;;;;;;;13.30;100.00;100936.03;4960413;28;20089;-78
2021/08/26 05:29:19;;;;;;;31.48;5.35;;;;;;;13.36;100.00;100934.56;4993791;28;20038;-81
2021/08/26 05:31:45;;;;;;;29.80;5.38;;;;;;;13.41;100.00;100935.75;4975867;28;20572;-80
2021/08/26 05:34:10;;;;;;;30.25;5.20;;;;;;;13.47;100.00;100936.06;4967885;28;20034;-79
2021/08/26 05:36:36;;;;;;;27.00;5.20;;;;;;;13.49;100.00;100940.22;4960119;28;20061;-78
2021/08/26 05:39:02;;;;;;;27.33;4.65;;;;;;;13.51;100.00;100943.50;4957141;28;20037;-79
2021/08/26 05:41:27;;;;;;;28.05;5.15;;;;;;;13.48;100.00;100943.00;4941339;28;20440;-80
2021/08/26 05:43:53;;;;;;;26.83;5.00;;;;;;;13.58;100.00;100946.31;4954891;28;20089;-80
2021/08/26 05:46:18;;;;;;;27.92;4.72;;;;;;;13.56;100.00;100948.28;4943627;28;20029;-81
2021/08/26 05:48:44;;;;;;;23.02;4.82;;;;;;;13.59;100.00;100946.16;4944529;28;20419;-80
2021/08/26 05:51:09;;;;;;;25.35;4.97;;;;;;;13.61;100.00;100949.44;4943636;28;20038;-79
2021/08/26 05:53:35;;;;;;;25.42;4.53;;;;;;;13.63;100.00;100954.56;4944468;28;20134;-80
2021/08/26 05:56:01;;;;;;;26.52;5.07;;;;;;;13.81;100.00;100967.63;4944778;28;20030;-79
2021/08/26 05:58:26;;;;;;;28.88;4.68;;;;;;;13.78;100.00;100955.56;4960460;28;20104;-79
2021/08/26 06:00:52;;;;;;;23.63;4.40;;;;;;;13.87;100.00;100960.88;4960549;28;20038;-80
2021/08/26 06:03:17;;;;;;;23.77;4.35;;;;;;;13.91;100.00;100959.56;4973122;28;20042;-79
2021/08/26 06:05:43;;;;;;;26.15;4.65;;;;;;;13.88;100.00;100959.88;4971168;28;20467;-81
2021/08/26 06:08:08;;;;;;;23.92;4.38;;;;;;;13.93;100.00;100966.31;4955379;28;20044;-83
2021/08/26 06:10:36;;;;;;;23.35;4.53;;;;;;;13.99;100.00;100963.03;4968220;28;20114;-79
2021/08/26 06:13:02;;;;;;;25.45;4.60;;;;;;;14.09;100.00;100970.78;4976438;28;20093;-80
2021/08/26 06:15:27;;;;;;;26.20;4.22;;;;;;;14.11;100.00;100957.41;4960803;28;20470;-82
2021/08/26 06:17:53;;;;;;;25.73;4.35;;;;;;;14.18;100.00;100971.59;4970879;28;20058;-81
2021/08/26 06:20:19;;;;;;;31.52;4.65;;;;;;;14.25;100.00;100972.59;4973184;28;20030;-80
2021/08/26 06:22:44;;;;;;;21.52;4.50;;;;;;;14.31;100.00;100976.38;4960458;28;20279;-81
2021/08/26 06:25:11;;;;;;;28.70;5.40;;;;;;;14.21;100.00;100979.19;4977090;28;20408;-82
2021/08/26 06:27:37;;;;;;;23.80;4.50;;;;;;;14.11;100.00;100979.38;4994515;28;20519;-80
2021/08/26 06:30:04;;;;;;;19.58;3.70;;;;;;;14.13;100.00;100995.03;4960708;28;20053;-80
2021/08/26 06:32:30;;;;;;;20.15;4.07;;;;;;;14.06;100.00;101007.22;4956648;28;20034;-81
2021/08/26 06:34:58;;;;;;;19.63;3.85;;;;;;;14.04;100.00;101006.56;4951501;28;20448;-81
2021/08/26 06:37:24;;;;;;;21.35;4.97;;;;;;;14.08;100.00;101015.78;4976511;28;20369;-80
2021/08/26 06:39:49;;;;;;;17.95;3.83;;;;;;;14.05;100.00;101021.38;4960672;28;20125;-80
2021/08/26 06:42:15;;;;;;;21.33;4.53;;;;;;;14.04;100.00;101023.19;4956970;28;20125;-83
2021/08/26 06:44:40;;;;;;;18.88;4.50;;;;;;;14.02;100.00;101025.19;4941660;28;20050;-82
2021/08/26 06:47:06;;;;;;;24.20;4.05;;;;;;;13.92;100.00;101017.41;4966435;28;20102;-81
2021/08/26 06:49:32;;;;;;;17.38;3.78;;;;;;;14.01;100.00;100999.78;4953859;28;20035;-81
2021/08/26 06:51:57;;;;;;;22.38;3.72;;;;;;;13.82;100.00;100996.47;4931726;28;20137;-80
2021/08/26 06:54:23;;;;;;;20.90;3.95;;;;;;;13.83;100.00;101003.38;4964260;28;20548;-84
2021/08/26 06:56:48;;;;;;;23.90;3.92;;;;;;;13.79;100.00;101001.25;4971217;28;20093;-83
2021/08/26 06:59:14;;;;;;;24.08;3.83;;;;;;;13.87;100.00;100988.06;4959661;28;20038;-81
2021/08/26 07:01:40;;;;;;;15.93;3.78;;;;;;;13.97;100.00;100974.72;4972092;28;20034;-80
2021/08/26 07:04:05;;;;;;;17.35;3.70;;;;;;;14.07;100.00;100971.94;4937203;28;20034;-79
2021/08/26 07:06:31;;;;;;;17.90;3.53;;;;;;;14.17;100.00;100980.53;4955706;28;20019;-81
2021/08/26 07:08:56;;;;;;;17.98;3.40;;;;;;;14.28;100.00;100974.06;4955338;28;20033;-84
2021/08/26 07:11:22;;;;;;;19.58;3.88;;;;;;;14.39;100.00;100977.22;4939535;28;20473;-79
2021/08/26 07:13:47;;;;;;;20.60;3.60;;;;;;;14.78;100.00;100997.66;4959350;28;20134;-81
2021/08/26 07:16:13;;;;;;;26.60;4.55;;;;;;;15.02;100.00;101009.16;4959567;28;20034;-81
2021/08/26 07:18:39;;;;;;;14.60;3.20;;;;;;;15.08;100.00;101005.03;4959080;28;20081;-83
2021/08/26 07:21:04;;;;;;;19.38;3.22;;;;;;;15.07;100.00;100990.16;4960178;28;20034;-81
2021/08/26 07:23:30;;;;;;;20.45;4.13;;;;;;;15.20;100.00;100998.41;4975750;28;20038;-78
2021/08/26 07:25:55;;;;;;;14.32;3.30;;;;;;;15.21;98.75;101000.03;4959205;28;20045;-80
2021/08/26 07:28:21;;;;;;;17.25;3.50;;;;;;;15.45;99.60;100995.66;4958945;28;20053;-81
2021/08/26 07:30:46;;;;;;;20.38;3.25;;;;;;;15.45;100.00;100995.66;4958990;28;20027;-81
2021/08/26 07:33:12;;;;;;;19.55;3.17;;;;;;;15.43;100.00;101006.38;4975291;28;20034;-81
2021/08/26 07:35:38;;;;;;;19.65;3.28;;;;;;;15.53;98.93;101000.88;4955350;28;20031;-79
2021/08/26 07:38:03;;;;;;;17.67;3.20;;;;;;;15.37;100.00;101005.25;4943118;28;20511;-82
2021/08/26 07:40:29;;;;;;;21.13;3.10;;;;;;;15.28;97.71;100989.59;4958837;28;20494;-79
2021/08/26 07:42:54;;;;;;;13.45;2.80;;;;;;;15.44;97.55;100992.16;4943007;28;20052;-81
2021/08/26 07:45:21;;;;;;;15.23;2.92;;;;;;;15.50;98.91;100994.13;4957655;28;20026;-80
2021/08/26 07:47:46;;;;;;;20.15;3.55;;;;;;;15.65;98.52;100994.22;4941376;28;20042;-80
2021/08/26 07:50:12;;;;;;;12.90;3.17;;;;;;;15.59;96.27;100994.91;4958889;28;20045;-83
2021/08/26 07:52:38;;;;;;;13.98;2.67;;;;;;;15.65;98.26;100996.88;4939631;28;20065;-81
2021/08/26 07:55:04;;;;;;;13.38;2.67;;;;;;;15.65;96.94;100996.03;4953777;28;20061;-82
2021/08/26 07:57:31;;;;;;;14.40;3.20;;;;;;;15.59;100.00;101002.84;4959430;28;20038;-80
2021/08/26 07:59:57;;;;;;;12.13;2.65;;;;;;;15.55;93.27;101005.00;4958695;28;20042;-81
2021/08/26 08:02:22;;;;;;;13.93;2.90;;;;;;;15.81;94.79;101003.09;4942829;28;20551;-81
2021/08/26 08:04:48;;;;;;;13.73;2.80;;;;;;;15.90;91.71;100994.94;4966644;28;20042;-80
2021/08/26 08:07:14;;;;;;;13.65;2.70;;;;;;;16.11;92.53;101004.06;4942228;28;20038;-78
2021/08/26 08:09:40;;;;;;;13.50;2.40;;;;;;;16.30;91.75;101006.22;4958819;28;20030;-82
2021/08/26 08:12:05;;;;;;;17.90;2.67;;;;;;;16.46;90.27;100999.97;4974803;28;20030;-78
2021/08/26 08:14:31;;;;;;;12.90;3.03;;;;;;;16.26;89.03;100996.16;4974550;28;20113;-82
2021/08/26 08:16:58;;;;;;;10.48;1.98;;;;;;;16.24;88.83;101008.75;4954883;28;20042;-80
2021/08/26 08:19:25;;;;;;;8.55;2.20;;;;;;;16.32;90.16;101003.41;4947373;28;20031;-81
2021/08/26 08:21:51;;;;;;;11.35;2.00;;;;;;;16.19;89.39;100990.75;4942320;28;20038;-79
2021/08/26 08:24:17;;;;;;;9.70;2.10;;;;;;;16.29;89.08;101006.38;4958183;28;20436;-80
2021/08/26 08:26:42;;;;;;;8.90;1.90;;;;;;;16.24;88.44;101014.88;4974556;28;20030;-81
2021/08/26 08:29:08;;;;;;;8.68;2.22;;;;;;;16.39;92.08;101017.56;4958244;28;20031;-81
2021/08/26 08:31:34;;;;;;;9.05;2.00;;;;;;;16.42;90.18;101011.91;4942116;28;20038;-79
2021/08/26 08:34:00;;;;;;;12.60;1.88;;;;;;;16.36;95.27;101023.22;4950207;28;20481;-79
2021/08/26 08:36:26;;;;;;;12.05;2.05;;;;;;;16.39;89.81;101014.06;4958085;28;20085;-81
2021/08/26 08:38:52;;;;;;;13.25;2.30;;;;;;;16.39;90.22;101014.06;4958726;28;20042;-82
2021/08/26 08:41:19;;;;;;;14.43;2.03;;;;;;;16.42;86.04;101040.19;4956676;28;20030;-83
2021/08/26 08:43:45;;;;;;;10.75;1.98;;;;;;;16.19;89.33;101022.50;4941910;28;20042;-80
2021/08/26 08:46:12;;;;;;;14.68;2.17;;;;;;;16.35;87.18;101022.41;4973117;28;20038;-81
2021/08/26 08:48:42;;;;;;;12.43;2.22;;;;;;;16.49;88.29;101033.19;4957398;28;20480;-80
2021/08/26 08:51:09;;;;;;;7.75;1.55;;;;;;;16.55;85.43;101029.84;4941738;28;20176;-82
2021/08/26 08:53:36;;;;;;;13.60;1.90;;;;;;;16.57;84.31;101041.06;4937983;28;20035;-78
2021/08/26 08:56:04;;;;;;;10.18;1.83;;;;;;;16.59;84.33;101035.59;4972289;28;20114;-82
2021/08/26 08:58:36;;;;;;;11.52;1.67;;;;;;;16.64;84.38;101031.41;4963913;28;20047;-81
2021/08/26 09:01:01;;;;;;;3.58;1.42;;;;;;;16.44;87.17;101035.56;4980412;28;20033;-79
2021/08/26 09:03:27;;;;;;;12.18;1.60;;;;;;;16.33;83.03;101032.34;4956070;28;20042;-81
2021/08/26 09:05:58;;;;;;;9.15;1.48;;;;;;;16.28;84.32;101033.88;4954870;28;20035;-78
2021/08/26 09:08:26;;;;;;;9.35;1.58;;;;;;;16.25;88.40;101032.38;4940456;28;20062;-79
2021/08/26 09:10:54;;;;;;;10.13;1.65;;;;;;;16.31;86.67;101031.69;4962961;28;20492;-79
2021/08/26 09:13:31;;;;;;;9.27;1.52;;;;;;;16.62;80.58;101032.59;4972173;28;20184;-80
2021/08/26 09:15:58;;;;;;;8.10;1.40;;;;;;;16.81;78.75;101032.09;4964715;28;20038;-81
2021/08/26 09:18:24;;;;;;;9.25;1.33;;;;;;;16.95;76.04;101030.47;4972470;28;20230;-82
2021/08/26 09:21:02;;;;;;;11.50;1.40;;;;;;;17.06;83.44;101031.88;4957974;28;20601;-80
2021/08/26 09:23:29;;;;;;;8.73;1.70;;;;;;;17.19;79.10;101029.41;4981801;28;20117;-81
2021/08/26 09:26:15;;;;;;;8.38;1.17;;;;;;;17.32;80.90;101032.22;4964926;28;20058;-81
2021/08/26 09:28:40;;;;;;;12.38;1.42;;;;;;;17.43;76.86;101020.34;4970279;28;20042;-81
2021/08/26 09:31:14;;;;;;;4.45;0.98;;;;;;;17.44;76.69;101034.41;4960441;28;20034;-80
2021/08/26 09:34:06;;;;;;;7.30;1.05;;;;;;;17.50;76.47;101026.56;4976499;28;20497;-81
2021/08/26 09:36:35;;;;;;;8.25;1.35;;;;;;;17.67;76.14;101032.47;4961082;28;20030;-80
2021/08/26 09:39:06;;;;;;;6.95;1.50;;;;;;;17.71;74.74;101032.91;4959907;28;20345;-81
2021/08/26 09:41:35;;;;;;;5.88;1.08;;;;;;;17.63;75.31;101022.41;4962663;28;20035;-82
2021/08/26 09:44:05;;;;;;;4.00;1.10;;;;;;;17.90;77.33;101027.03;4960749;28;20046;-83
2021/08/26 09:46:32;;;;;;;3.72;1.23;;;;;;;17.73;72.82;101016.81;4942033;28;20073;-83
2021/08/26 09:49:15;;;;;;;8.27;1.42;;;;;;;17.33;72.63;101025.13;4946287;28;20038;-81
2021/08/26 09:51:41;;;;;;;5.68;1.10;;;;;;;17.62;70.62;101018.13;4958399;28;20026;-80
2021/08/26 09:54:27;;;;;;;6.70;1.20;;;;;;;17.98;71.74;101026.09;4937321;28;20038;-80
2021/08/26 09:56:52;;;;;;;5.43;1.23;;;;;;;18.03;67.87;101010.44;4977729;28;20042;-79
2021/08/26 09:59:18;;;;;;;5.82;1.13;;;;;;;17.98;71.40;101010.16;4985898;28;20121;-82
2021/08/26 10:01:44;;;;;;;4.50;0.93;;;;;;;18.10;69.99;101005.16;4941309;28;20495;-82
2021/08/26 10:04:27;;;;;;;7.15;1.20;;;;;;;18.05;70.99;101000.44;4942001;28;20026;-80
2021/08/26 10:06:53;;;;;;;5.43;1.00;;;;;;;18.18;70.09;100999.75;4960698;28;20468;-79
2021/08/26 10:09:19;;;;;;;8.32;1.02;;;;;;;18.00;68.01;100999.38;4945819;28;20034;-79
2021/08/26 10:11:45;;;;;;;10.63;1.13;;;;;;;18.04;72.66;100995.31;4976561;28;20134;-78
2021/08/26 10:14:11;;;;;;;6.65;0.80;;;;;;;17.99;74.09;101006.50;4993765;28;20038;-80
2021/08/26 10:16:40;;;;;;;8.10;1.20;;;;;;;17.59;70.42;101008.69;4960519;28;20083;-82
2021/08/26 10:19:06;;;;;;;7.15;1.00;;;;;;;17.36;77.11;101002.69;4994629;28;20038;-82
2021/08/26 10:21:32;;;;;;;5.38;1.17;;;;;;;17.21;73.18;101008.00;4959262;28;20030;-80
2021/08/26 10:23:58;;;;;;;6.18;0.90;;;;;;;17.39;75.82;101010.28;4957957;28;20035;-80
2021/08/26 10:26:26;;;;;;;5.22;1.00;;;;;;;17.13;77.04;101006.28;4954426;28;20034;-80
2021/08/26 10:28:52;;;;;;;7.13;1.40;;;;;;;16.78;74.06;101007.78;4974196;28;20044;-83
2021/08/26 10:31:32;;;;;;;10.52;1.13;;;;;;;16.58;76.92;101007.50;4974719;28;20030;-83
2021/08/26 10:34:14;;;;;;;6.43;1.20;;;;;;;16.44;77.52;101009.88;4937950;28;20037;-81
2021/08/26 10:37:16;;;;;;;5.75;1.08;;;;;;;16.23;74.11;101020.34;4960974;28;20042;-80
2021/08/26 10:39:42;;;;;;;6.50;0.95;;;;;;;15.87;77.75;101008.50;4952605;28;20046;-82
2021/08/26 10:42:17;;;;;;;2.85;0.88;;;;;;;15.82;77.87;101023.25;4952916;28;20184;-80
2021/08/26 10:45:00;;;;;;;5.47;0.82;;;;;;;15.79;81.51;101023.59;4961489;28;20065;-83
2021/08/26 10:47:52;;;;;;;4.00;0.90;;;;;;;15.77;78.41;101024.59;4961005;28;20583;-80
2021/08/26 10:50:21;;;;;;;5.57;1.00;;;;;;;15.76;77.95;101019.47;4977429;28;20501;-81
2021/08/26 10:53:04;;;;;;;6.43;0.98;;;;;;;15.94;80.19;101025.31;4960175;28;20034;-85
2021/08/26 10:55:38;;;;;;;3.13;0.70;;;;;;;16.29;76.61;101024.91;4960715;28;20580;-81
2021/08/26 10:58:23;;;;;;;3.97;0.98;;;;;;;16.52;73.95;101032.84;4973760;28;20406;-78
2021/08/26 11:00:50;;;;;;;5.25;0.90;;;;;;;16.55;73.93;101028.00;4957331;28;20042;-80
2021/08/26 11:03:34;;;;;;;5.05;0.95;;;;;;;16.39;79.92;101033.44;4963526;28;20035;-80
2021/08/26 11:06:22;;;;;;;3.50;0.70;;;;;;;16.15;78.65;101026.50;4962860;28;20022;-80
2021/08/26 11:09:01;;;;;;;9.25;0.80;;;;;;;16.29;73.67;101035.50;4953834;28;20034;-79
2021/08/26 11:14:02;;;;;;;4.03;0.88;;;;;;;16.18;72.83;101033.25;4959236;28;20038;-79
2021/08/26 11:16:27;;;;;;;6.45;1.15;;;;;;;16.11;73.00;101030.50;4969921;28;20038;-80
2021/08/26 11:18:55;;;;;;;4.78;0.70;;;;;;;16.23;73.09;101028.28;4976136;28;20030;-79
2021/08/26 11:21:42;;;;;;;3.33;0.50;;;;;;;17.23;61.49;101033.31;4974053;28;20054;-79
2021/08/26 11:24:14;;;;;;;4.30;0.60;;;;;;;17.48;64.87;101038.34;4976134;28;20105;-79